Latest Weather Observations for Carnarvon

IDW60801

Issued at 4:33 pm WST Friday 20 October 2017 (issued every 30 minutes, with the page automatically refreshed every 10 minutes)

About weather observations | Map of weather stations | Latest weather observations for WA | Other Formats
Station Details ID: 006011 Name: CARNARVON AIRPORT Lat: -24.89 Lon: 113.67 Height: 4.0 m
Data from the previous 72 hours. | See also: Recent months at Carnarvon
Date/Time
WST
Temp
°C
App
Temp
°C
Dew
Point
°C
Rel
Hum
%
Delta-T
°C
Wind Press
QNH
hPa
Press
MSL
hPa
Rain since
9am
mm
Dir  Spd
km/h
Gust
km/h
Spd
kts
Gust
kts
20/04:30pm 28.0 25.0 9.4 31 10.3 W 15 19 8 10 1013.5 - 0.0
20/04:00pm 28.3 25.0 11.6 35 9.6 NW 20 28 11 15 1013.6 - 0.0
20/03:30pm 27.9 23.3 11.0 35 9.6 NW 26 33 14 18 1013.5 - 0.0
20/03:00pm 28.5 23.5 11.0 33 10.0 NW 28 37 15 20 1013.6 1013.6 0.0
20/02:30pm 28.0 22.4 11.4 35 9.5 NW 32 43 17 23 1013.6 - 0.0
20/02:00pm 29.3 23.7 10.2 30 10.8 WNW 30 37 16 20 1013.3 - 0.0
20/01:30pm 31.9 25.6 3.8 17 14.5 WNW 26 33 14 18 1013.3 - 0.0
20/01:00pm 32.8 27.1 8.5 22 13.6 NW 28 35 15 19 1013.2 - 0.0
20/12:30pm 34.1 28.8 7.0 18 14.9 NW 24 32 13 17 1013.4 - 0.0
20/12:00pm 34.2 29.2 6.5 18 15.1 N 22 33 12 18 1013.6 1013.6 0.0
20/11:30am 34.6 28.4 2.3 13 16.5 N 24 33 13 18 1013.8 - 0.0
20/11:00am 34.2 26.7 1.3 12 16.5 NNE 30 41 16 22 1013.9 - 0.0
20/10:30am 32.7 24.9 1.7 14 15.5 NNE 32 41 17 22 1014.2 - 0.0
20/10:00am 31.2 23.5 2.1 15 14.5 NNE 32 41 17 22 1014.3 - 0.0
20/09:30am 30.2 22.6 3.0 17 13.7 NNE 32 37 17 20 1014.2 - 0.0
20/09:00am 29.1 23.0 2.8 18 13.1 NNE 24 39 13 21 1014.3 1014.3 0.0
20/08:30am 27.0 21.6 2.7 21 11.9 NE 20 26 11 14 1014.2 - 0.0
20/08:00am 25.7 20.9 2.6 22 11.2 ENE 17 20 9 11 1013.9 - 0.0
20/07:30am 24.0 20.4 5.1 29 9.5 ESE 13 17 7 9 1013.9 - 0.0
20/07:00am 22.0 18.8 8.3 41 7.2 SSE 15 20 8 11 1013.7 - 0.0
20/06:30am 18.7 17.4 13.8 73 2.8 S 13 17 7 9 1013.6 - 0.0
20/06:00am 16.5 15.7 14.0 85 1.4 S 11 13 6 7 1013.1 1013.1 0.0
20/05:30am 17.6 16.2 14.5 82 1.8 S 15 17 8 9 1012.9 - 0.0
20/05:00am 18.0 16.5 14.3 79 2.1 S 15 19 8 10 1012.7 - 0.0
20/04:30am 18.3 16.4 14.3 77 2.3 S 17 20 9 11 1012.6 - 0.0
20/04:00am 18.5 16.1 14.3 76 2.4 S 20 26 11 14 1012.6 - 0.0
20/03:30am 18.7 16.3 14.4 76 2.5 S 20 28 11 15 1012.7 - 0.0
20/03:00am 18.9 16.6 14.6 76 2.5 S 20 28 11 15 1013.0 1013.0 0.0
20/02:30am 19.2 17.0 14.9 76 2.5 S 20 28 11 15 1013.4 - 0.0
20/02:00am 19.5 16.6 15.1 76 2.6 S 24 32 13 17 1013.7 - 0.0
20/01:30am 19.5 16.8 15.6 78 2.3 S 24 32 13 17 1014.1 - 0.0
20/01:00am 19.7 16.6 15.6 77 2.4 SSE 26 35 14 19 1014.6 - 0.0
20/12:30am 20.0 16.3 15.1 73 2.9 SSE 28 39 15 21 1014.9 - 0.0
20/12:00am 20.0 16.5 14.5 70 3.2 S 26 35 14 19 1015.1 1015.1 0.0
 
Date/Time
WST
Temp
°C
App
Temp
°C
Dew
Point
°C
Rel
Hum
%
Delta-T
°C
Wind Press
QNH
hPa
Press
MSL
hPa
Rain since
9am
mm
Dir  Spd
km/h
Gust
km/h
Spd
kts
Gust
kts
19/11:30pm 20.4 15.5 13.8 66 3.8 S 32 43 17 23 1015.3 - 0.0
19/11:00pm 20.7 16.1 13.4 63 4.2 S 30 41 16 22 1015.5 - 0.0
19/10:30pm 20.8 16.0 12.9 60 4.5 S 30 41 16 22 1015.7 - 0.0
19/10:00pm 21.0 15.7 12.5 58 4.8 S 32 44 17 24 1015.9 - 0.0
19/09:30pm 21.1 16.4 13.2 60 4.5 S 30 39 16 21 1016.0 - 0.0
19/09:00pm 21.3 16.6 13.1 59 4.7 S 30 39 16 21 1016.0 1016.0 0.0
19/08:30pm 21.8 15.7 11.8 53 5.6 S 35 48 19 26 1015.8 - 0.0
19/08:00pm 22.2 16.6 13.3 57 5.1 S 35 46 19 25 1015.5 - 0.0
19/07:30pm 22.6 18.3 14.4 60 4.8 S 30 43 16 23 1015.3 - 0.0
19/07:00pm 22.7 18.0 15.9 65 4.1 S 35 46 19 25 1014.9 - 0.0
19/06:30pm 23.0 17.3 15.1 61 4.7 SSW 39 50 21 27 1014.5 - 0.0
19/06:00pm 23.5 19.0 16.3 64 4.4 SSW 35 46 19 25 1014.3 1014.3 0.0
19/05:30pm 24.3 19.5 15.7 58 5.2 SSW 35 50 19 27 1013.9 - 0.0
19/05:00pm 24.9 20.1 15.7 56 5.6 SSW 35 50 19 27 1013.7 - 0.0
19/04:30pm 25.6 20.0 14.5 50 6.6 SSW 37 46 20 25 1013.6 - 0.0
19/04:00pm 26.3 21.6 14.4 48 7.1 SSW 32 39 17 21 1013.7 - 0.0
19/03:30pm 27.0 22.3 14.3 45 7.6 SSW 32 39 17 21 1013.8 - 0.0
19/03:00pm 27.4 22.3 13.7 43 8.1 SSW 33 44 18 24 1013.8 1013.8 0.0
19/02:30pm 28.2 22.4 11.5 35 9.6 S 33 46 18 25 1014.0 - 0.0
19/02:00pm 27.7 21.2 11.7 37 9.2 S 37 46 20 25 1014.3 - 0.0
19/01:30pm 25.7 19.5 12.8 44 7.5 S 37 46 20 25 1014.6 - 0.0
19/01:00pm 26.2 20.5 13.0 44 7.7 S 35 46 19 25 1014.8 - 0.0
19/12:30pm 25.0 19.8 13.3 48 6.8 SSW 33 43 18 23 1015.3 - 0.0
19/12:00pm 25.8 21.0 12.9 44 7.5 SSW 30 41 16 22 1015.6 1015.6 0.0
19/11:47am 26.5 22.7 11.1 38 8.7 S 22 32 12 17 1015.9 - 0.0
19/11:30am 31.6 25.1 -2.7 11 15.8 SE 22 39 12 21 1016.0 - 0.0
19/11:00am 30.2 22.2 -2.2 12 14.9 ESE 30 37 16 20 1016.5 - 0.0
19/10:30am 29.0 22.3 -0.8 14 13.9 ESE 24 35 13 19 1016.9 - 0.0
19/10:00am 27.6 20.2 -0.7 15 13.1 SE 28 37 15 20 1017.3 - 0.0
19/09:30am 26.5 18.8 -0.4 17 12.4 SE 30 37 16 20 1017.6 - 0.0
19/09:00am 25.1 17.4 0.1 19 11.5 SE 30 39 16 21 1017.5 1017.5 0.0
19/08:30am 23.5 15.3 0.3 21 10.6 ESE 33 43 18 23 1017.4 - 0.0
19/08:00am 22.1 14.3 1.6 26 9.5 ESE 32 41 17 22 1017.5 - 0.0
19/07:30am 20.0 12.8 3.2 33 7.9 ESE 30 41 16 22 1017.6 - 0.0
19/07:00am 17.3 12.4 5.2 45 5.8 SE 20 28 11 15 1017.6 - 0.0
19/06:30am 15.6 11.0 5.8 52 4.7 SE 19 24 10 13 1017.4 - 0.0
19/06:00am 14.7 10.0 6.1 56 4.1 SSE 20 26 11 14 1017.1 1017.1 0.0
19/05:30am 14.9 10.2 6.2 56 4.2 SSE 20 28 11 15 1016.7 - 0.0
19/05:00am 15.5 10.2 6.7 55 4.3 SSE 24 32 13 17 1016.7 - 0.0
19/04:30am 15.9 10.3 7.0 55 4.4 SSE 26 35 14 19 1016.6 - 0.0
19/04:00am 16.3 10.3 7.2 55 4.5 SSE 28 39 15 21 1016.3 - 0.0
19/03:30am 16.7 10.5 8.0 56 4.4 SSE 30 41 16 22 1016.3 - 0.0
19/03:00am 17.0 10.5 8.8 58 4.2 SSE 33 44 18 24 1016.2 1016.2 0.0
19/02:30am 17.6 11.4 9.4 58 4.3 SSE 32 43 17 23 1016.2 - 0.0
19/02:00am 17.8 11.9 10.5 62 3.9 SSE 32 43 17 23 1016.8 - 0.0
19/01:30am 18.0 13.6 11.8 67 3.4 SSE 26 37 14 20 1017.0 - 0.0
19/01:00am 18.3 12.8 11.7 65 3.6 SSE 32 43 17 23 1017.3 - 0.0
19/12:30am 18.5 13.5 12.2 66 3.5 SSE 30 41 16 22 1017.5 - 0.0
19/12:00am 18.2 12.8 12.2 68 3.3 S 32 43 17 23 1017.7 1017.7 0.0
 
Date/Time
WST
Temp
°C
App
Temp
°C
Dew
Point
°C
Rel
Hum
%
Delta-T
°C
Wind Press
QNH
hPa
Press
MSL
hPa
Rain since
9am
mm
Dir  Spd
km/h
Gust
km/h
Spd
kts
Gust
kts
18/11:30pm 18.4 12.3 11.6 64 3.7 SSE 35 46 19 25 1018.0 - 0.0
18/11:00pm 19.0 13.1 12.3 65 3.7 S 35 44 19 24 1018.3 - 0.0
18/10:30pm 19.0 13.3 13.0 68 3.4 S 35 46 19 25 1018.3 - 0.0
18/10:00pm 19.0 13.6 12.8 67 3.5 S 33 52 18 28 1018.4 - 0.0
18/09:30pm 19.1 13.1 13.3 69 3.3 S 37 50 20 27 1018.5 - 0.0
18/09:00pm 19.2 13.4 12.6 65 3.7 S 35 54 19 29 1018.3 1018.3 0.0
18/08:30pm 19.5 13.0 12.9 65 3.7 S 39 54 21 29 1018.1 - 0.0
18/08:00pm 20.0 14.4 13.3 65 3.8 S 35 48 19 26 1017.7 - 0.0
18/07:30pm 20.7 13.9 13.1 61 4.3 S 41 52 22 28 1017.2 - 0.0
18/07:00pm 21.1 14.6 12.8 59 4.7 S 39 52 21 28 1016.9 - 0.0
18/06:30pm 21.5 15.8 13.1 58 4.8 S 35 52 19 28 1016.4 - 0.0
18/06:26pm 21.7 16.2 12.5 56 5.2 S 33 52 18 28 1016.3 - 0.0
18/06:00pm 22.4 15.8 12.5 53 5.6 S 39 48 21 26 1016.1 1016.1 0.0
18/05:30pm 22.8 18.3 15.4 63 4.4 S 33 46 18 25 1015.7 - 0.0
18/05:00pm 23.6 16.7 11.7 47 6.7 S 39 50 21 27 1015.5 - 0.0
18/04:30pm 24.3 17.0 11.7 45 7.1 S 41 50 22 27 1015.4 - 0.0
18/04:00pm 24.6 17.0 10.5 41 7.8 S 41 50 22 27 1015.2 - 0.0
18/03:30pm 24.4 17.1 11.7 45 7.2 S 41 50 22 27 1015.3 - 0.0
18/03:00pm 24.9 17.9 11.4 42 7.6 S 39 48 21 26 1015.3 1015.3 0.0
18/02:30pm 25.1 17.8 10.1 38 8.3 S 39 50 21 27 1015.6 - 0.0
18/02:00pm 25.6 18.9 9.8 37 8.7 S 35 46 19 25 1016.0 - 0.0
18/01:30pm 25.0 17.5 8.1 34 9.0 S 37 50 20 27 1016.5 - 0.0
18/01:00pm 24.6 17.2 8.3 35 8.7 S 37 52 20 28 1017.0 - 0.0
18/12:30pm 24.3 18.3 12.0 46 7.0 S 35 46 19 25 1017.6 - 0.0
18/12:00pm 24.0 16.6 9.7 40 7.8 S 39 50 21 27 1017.9 1017.9 0.0
18/11:30am 23.7 16.9 10.7 44 7.2 S 37 46 20 25 1018.4 - 0.0
18/11:00am 23.6 16.6 10.1 42 7.4 S 37 50 20 27 1018.7 - 0.0
18/10:30am 23.3 16.7 10.1 43 7.2 S 35 50 19 27 1019.0 - 0.0
18/10:00am 23.0 16.7 9.7 42 7.2 SSE 33 43 18 23 1019.0 - 0.0
18/09:30am 21.9 15.3 9.9 46 6.5 SSE 35 44 19 24 1019.2 - 0.0
18/09:00am 21.7 15.6 10.5 49 6.1 SSE 33 43 18 23 1019.2 1019.2 0.4
18/08:30am 21.4 15.3 10.3 49 6.0 S 33 41 18 22 1019.0 - 0.4
18/08:00am 20.9 15.4 10.4 51 5.7 SE 30 39 16 21 1019.1 - 0.4
18/07:30am 20.2 16.1 10.2 52 5.4 SE 22 28 12 15 1018.9 - 0.4
18/07:00am 18.7 15.0 9.6 55 4.8 SE 19 24 10 13 1018.6 - 0.4
18/06:30am 17.9 14.6 9.5 58 4.4 SSE 17 20 9 11 1018.3 - 0.4
18/06:00am 16.9 13.7 10.1 64 3.6 SSE 17 20 9 11 1017.8 1017.8 0.4
18/05:30am 17.0 14.2 11.2 68 3.1 SSE 17 22 9 12 1017.4 - 0.4
18/05:00am 17.0 13.4 10.6 66 3.4 S 20 28 11 15 1017.1 - 0.4
18/04:30am 17.1 13.2 10.7 66 3.4 S 22 28 12 15 1016.9 - 0.4
18/04:00am 17.3 13.3 10.3 63 3.7 S 22 28 12 15 1016.3 - 0.4
18/03:30am 17.6 12.9 10.5 63 3.8 S 26 33 14 18 1016.1 - 0.4
18/03:00am 17.8 13.6 11.1 65 3.6 SSE 24 32 13 17 1015.8 1015.8 0.4
18/02:30am 17.9 14.4 12.1 69 3.2 S 22 33 12 18 1015.9 - 0.4
18/02:00am 17.8 13.7 11.6 67 3.4 S 24 30 13 16 1015.9 - 0.4
18/01:30am 18.0 14.3 11.4 65 3.6 S 22 32 12 17 1016.1 - 0.4
18/01:00am 17.8 13.9 10.7 63 3.8 S 22 30 12 16 1016.2 - 0.4
18/12:30am 18.0 13.9 10.1 60 4.2 S 22 30 12 16 1016.3 - 0.4
18/12:00am 18.4 13.8 9.5 56 4.7 S 24 30 13 16 1016.6 1016.6 0.4
 
Date/Time
WST
Temp
°C
App
Temp
°C
Dew
Point
°C
Rel
Hum
%
Delta-T
°C
Wind Press
QNH
hPa
Press
MSL
hPa
Rain since
9am
mm
Dir  Spd
km/h
Gust
km/h
Spd
kts
Gust
kts
17/11:30pm 18.3 13.4 10.0 58 4.4 S 26 33 14 18 1016.7 - 0.4
17/11:00pm 18.7 13.5 8.7 52 5.2 S 26 35 14 19 1017.0 - 0.4
17/10:30pm 18.6 14.1 10.2 58 4.5 S 24 33 13 18 1016.8 - 0.4
17/10:00pm 18.8 13.7 10.6 59 4.4 S 28 37 15 20 1016.7 - 0.4
17/09:30pm 19.1 13.9 10.3 56 4.7 S 28 35 15 19 1016.6 - 0.4
17/09:00pm 19.3 14.0 9.7 53 5.1 S 28 35 15 19 1016.6 1016.6 0.4
17/08:30pm 19.4 13.7 9.8 53 5.1 SSW 30 39 16 21 1016.4 - 0.4
17/08:00pm 19.7 15.1 10.9 57 4.8 SSW 26 35 14 19 1016.3 - 0.4
17/07:30pm 19.5 14.3 10.2 55 5.0 S 28 35 15 19 1015.8 - 0.4
17/07:00pm 19.6 14.2 9.4 51 5.4 SSW 28 37 15 20 1015.3 - 0.4
17/06:30pm 19.8 14.6 10.1 53 5.2 SW 28 37 15 20 1015.0 - 0.4
17/06:00pm 20.5 14.8 9.9 50 5.7 SSW 30 39 16 21 1014.6 1014.6 0.4
17/05:30pm 21.2 15.8 9.6 47 6.2 SW 28 39 15 21 1014.3 - 0.4
17/05:00pm 21.7 15.8 8.9 44 6.8 SW 30 37 16 20 1013.9 - 0.4

Other Formats:

Comma delimited format used in spreadsheet applications
http://www.bom.gov.au/fwo/IDW60801/IDW60801.94300.axf

JavaScript Object Notation format (JSON) in row-major order
http://www.bom.gov.au/fwo/IDW60801/IDW60801.94300.json